sensor_id;sensor_type;location;lat;lon;timestamp;P1;durP1;ratioP1;P2;durP2;ratioP2
21543;SDS011;10933;50.754;11.508;2023-05-29T00:01:25;3.87;;;3.57;;
21543;SDS011;10933;50.754;11.508;2023-05-29T00:03:51;4.20;;;3.90;;
21543;SDS011;10933;50.754;11.508;2023-05-29T00:06:20;4.63;;;4.33;;
21543;SDS011;10933;50.754;11.508;2023-05-29T00:08:47;3.60;;;3.30;;
21543;SDS011;10933;50.754;11.508;2023-05-29T00:11:13;4.37;;;3.97;;
21543;SDS011;10933;50.754;11.508;2023-05-29T00:13:39;4.30;;;4.00;;
21543;SDS011;10933;50.754;11.508;2023-05-29T00:16:06;3.97;;;3.67;;
21543;SDS011;10933;50.754;11.508;2023-05-29T00:18:34;4.17;;;3.87;;
21543;SDS011;10933;50.754;11.508;2023-05-29T00:21:01;4.90;;;4.50;;
21543;SDS011;10933;50.754;11.508;2023-05-29T00:23:27;4.40;;;4.10;;
21543;SDS011;10933;50.754;11.508;2023-05-29T00:25:53;4.77;;;4.37;;
21543;SDS011;10933;50.754;11.508;2023-05-29T00:28:19;4.03;;;3.83;;
21543;SDS011;10933;50.754;11.508;2023-05-29T00:30:45;4.57;;;4.27;;
21543;SDS011;10933;50.754;11.508;2023-05-29T00:33:12;4.73;;;4.40;;
21543;SDS011;10933;50.754;11.508;2023-05-29T00:35:38;3.97;;;3.67;;
21543;SDS011;10933;50.754;11.508;2023-05-29T00:38:04;4.80;;;4.13;;
21543;SDS011;10933;50.754;11.508;2023-05-29T00:40:30;4.13;;;3.83;;
21543;SDS011;10933;50.754;11.508;2023-05-29T00:42:57;5.13;;;4.00;;
21543;SDS011;10933;50.754;11.508;2023-05-29T00:45:23;4.17;;;3.87;;
21543;SDS011;10933;50.754;11.508;2023-05-29T00:47:49;3.93;;;3.63;;
21543;SDS011;10933;50.754;11.508;2023-05-29T00:50:15;4.37;;;4.07;;
21543;SDS011;10933;50.754;11.508;2023-05-29T00:52:43;4.50;;;4.20;;
21543;SDS011;10933;50.754;11.508;2023-05-29T00:55:10;4.03;;;3.73;;
21543;SDS011;10933;50.754;11.508;2023-05-29T00:57:38;4.10;;;3.80;;
21543;SDS011;10933;50.754;11.508;2023-05-29T01:00:05;4.30;;;4.00;;
21543;SDS011;10933;50.754;11.508;2023-05-29T01:02:38;4.20;;;3.90;;
21543;SDS011;10933;50.754;11.508;2023-05-29T01:05:09;4.37;;;4.07;;
21543;SDS011;10933;50.754;11.508;2023-05-29T01:07:36;5.10;;;4.60;;
21543;SDS011;10933;50.754;11.508;2023-05-29T01:10:03;4.33;;;4.03;;
21543;SDS011;10933;50.754;11.508;2023-05-29T01:15:35;4.53;;;4.20;;
21543;SDS011;10933;50.754;11.508;2023-05-29T01:23:37;4.57;;;4.17;;
21543;SDS011;10933;50.754;11.508;2023-05-29T01:29:00;4.87;;;4.47;;
21543;SDS011;10933;50.754;11.508;2023-05-29T01:31:30;5.13;;;4.83;;
21543;SDS011;10933;50.754;11.508;2023-05-29T01:33:58;5.60;;;5.10;;
21543;SDS011;10933;50.754;11.508;2023-05-29T01:36:25;6.10;;;4.70;;
21543;SDS011;10933;50.754;11.508;2023-05-29T01:38:53;4.77;;;4.37;;
21543;SDS011;10933;50.754;11.508;2023-05-29T01:41:21;4.20;;;3.90;;
21543;SDS011;10933;50.754;11.508;2023-05-29T01:43:49;5.00;;;4.50;;
21543;SDS011;10933;50.754;11.508;2023-05-29T01:46:16;7.97;;;4.70;;
21543;SDS011;10933;50.754;11.508;2023-05-29T01:48:44;5.27;;;4.87;;
21543;SDS011;10933;50.754;11.508;2023-05-29T01:51:11;4.87;;;4.57;;
21543;SDS011;10933;50.754;11.508;2023-05-29T01:53:38;6.87;;;4.97;;
21543;SDS011;10933;50.754;11.508;2023-05-29T01:56:05;4.43;;;4.13;;
21543;SDS011;10933;50.754;11.508;2023-05-29T01:58:33;4.90;;;4.50;;
21543;SDS011;10933;50.754;11.508;2023-05-29T02:01:01;4.63;;;4.23;;
21543;SDS011;10933;50.754;11.508;2023-05-29T02:03:31;4.60;;;4.20;;
21543;SDS011;10933;50.754;11.508;2023-05-29T02:05:58;4.67;;;4.30;;
21543;SDS011;10933;50.754;11.508;2023-05-29T02:08:25;4.97;;;4.57;;
21543;SDS011;10933;50.754;11.508;2023-05-29T02:10:52;5.20;;;4.90;;
21543;SDS011;10933;50.754;11.508;2023-05-29T02:13:18;4.97;;;4.57;;
21543;SDS011;10933;50.754;11.508;2023-05-29T02:15:45;4.90;;;4.57;;
21543;SDS011;10933;50.754;11.508;2023-05-29T02:18:13;4.83;;;4.53;;
21543;SDS011;10933;50.754;11.508;2023-05-29T02:20:40;4.37;;;3.93;;
21543;SDS011;10933;50.754;11.508;2023-05-29T02:23:09;5.03;;;4.63;;
21543;SDS011;10933;50.754;11.508;2023-05-29T02:25:37;5.40;;;4.47;;
21543;SDS011;10933;50.754;11.508;2023-05-29T02:28:05;4.27;;;3.97;;
21543;SDS011;10933;50.754;11.508;2023-05-29T02:30:31;4.50;;;4.20;;
21543;SDS011;10933;50.754;11.508;2023-05-29T02:32:57;5.00;;;4.63;;
21543;SDS011;10933;50.754;11.508;2023-05-29T02:35:24;5.00;;;4.60;;
21543;SDS011;10933;50.754;11.508;2023-05-29T02:37:50;4.87;;;4.50;;
21543;SDS011;10933;50.754;11.508;2023-05-29T02:40:17;4.80;;;4.40;;
21543;SDS011;10933;50.754;11.508;2023-05-29T02:42:44;4.80;;;4.50;;
21543;SDS011;10933;50.754;11.508;2023-05-29T02:45:11;4.90;;;4.50;;
21543;SDS011;10933;50.754;11.508;2023-05-29T02:47:38;4.60;;;4.30;;
21543;SDS011;10933;50.754;11.508;2023-05-29T02:50:05;4.70;;;4.07;;
21543;SDS011;10933;50.754;11.508;2023-05-29T02:52:31;4.27;;;3.97;;
21543;SDS011;10933;50.754;11.508;2023-05-29T02:54:57;4.70;;;4.40;;
21543;SDS011;10933;50.754;11.508;2023-05-29T02:57:24;4.50;;;4.20;;
21543;SDS011;10933;50.754;11.508;2023-05-29T02:59:50;4.90;;;4.53;;
21543;SDS011;10933;50.754;11.508;2023-05-29T03:02:17;5.10;;;4.70;;
21543;SDS011;10933;50.754;11.508;2023-05-29T03:04:44;4.97;;;4.23;;
21543;SDS011;10933;50.754;11.508;2023-05-29T03:07:10;5.00;;;4.70;;
21543;SDS011;10933;50.754;11.508;2023-05-29T03:09:37;4.77;;;4.40;;
21543;SDS011;10933;50.754;11.508;2023-05-29T03:12:04;5.00;;;4.60;;
21543;SDS011;10933;50.754;11.508;2023-05-29T03:14:30;5.43;;;4.17;;
21543;SDS011;10933;50.754;11.508;2023-05-29T03:17:04;4.90;;;4.60;;
21543;SDS011;10933;50.754;11.508;2023-05-29T03:19:30;4.47;;;4.17;;
21543;SDS011;10933;50.754;11.508;2023-05-29T03:21:57;4.93;;;4.63;;
21543;SDS011;10933;50.754;11.508;2023-05-29T03:24:23;5.97;;;5.47;;
21543;SDS011;10933;50.754;11.508;2023-05-29T03:26:49;4.87;;;4.57;;
21543;SDS011;10933;50.754;11.508;2023-05-29T03:29:16;5.20;;;4.80;;
21543;SDS011;10933;50.754;11.508;2023-05-29T03:31:42;5.37;;;4.97;;
21543;SDS011;10933;50.754;11.508;2023-05-29T03:34:08;7.50;;;4.07;;
21543;SDS011;10933;50.754;11.508;2023-05-29T03:36:35;4.73;;;4.33;;
21543;SDS011;10933;50.754;11.508;2023-05-29T03:39:04;4.77;;;4.40;;
21543;SDS011;10933;50.754;11.508;2023-05-29T03:41:31;4.97;;;4.60;;
21543;SDS011;10933;50.754;11.508;2023-05-29T03:43:57;5.27;;;4.77;;
21543;SDS011;10933;50.754;11.508;2023-05-29T03:46:23;5.43;;;5.03;;
21543;SDS011;10933;50.754;11.508;2023-05-29T03:48:49;10.20;;;5.40;;
21543;SDS011;10933;50.754;11.508;2023-05-29T03:51:15;5.13;;;4.80;;
21543;SDS011;10933;50.754;11.508;2023-05-29T03:53:42;4.97;;;4.67;;
21543;SDS011;10933;50.754;11.508;2023-05-29T03:56:08;5.43;;;5.03;;
21543;SDS011;10933;50.754;11.508;2023-05-29T03:58:34;5.70;;;5.30;;
21543;SDS011;10933;50.754;11.508;2023-05-29T04:01:01;4.87;;;4.47;;
21543;SDS011;10933;50.754;11.508;2023-05-29T04:03:29;4.87;;;4.57;;
21543;SDS011;10933;50.754;11.508;2023-05-29T04:05:56;5.13;;;4.73;;
21543;SDS011;10933;50.754;11.508;2023-05-29T04:08:22;5.13;;;4.70;;
21543;SDS011;10933;50.754;11.508;2023-05-29T04:10:48;4.90;;;4.50;;
21543;SDS011;10933;50.754;11.508;2023-05-29T04:13:18;5.13;;;4.73;;
21543;SDS011;10933;50.754;11.508;2023-05-29T04:15:45;4.07;;;3.63;;
21543;SDS011;10933;50.754;11.508;2023-05-29T04:18:12;4.23;;;3.83;;
21543;SDS011;10933;50.754;11.508;2023-05-29T04:20:38;4.05;;;3.80;;
21543;SDS011;10933;50.754;11.508;2023-05-29T04:23:04;4.00;;;3.70;;
21543;SDS011;10933;50.754;11.508;2023-05-29T04:25:31;5.35;;;4.03;;
21543;SDS011;10933;50.754;11.508;2023-05-29T04:27:57;4.00;;;3.70;;
21543;SDS011;10933;50.754;11.508;2023-05-29T04:30:27;3.60;;;3.40;;
21543;SDS011;10933;50.754;11.508;2023-05-29T04:32:53;3.60;;;3.40;;
21543;SDS011;10933;50.754;11.508;2023-05-29T04:35:19;3.58;;;3.35;;
21543;SDS011;10933;50.754;11.508;2023-05-29T04:37:46;3.53;;;3.33;;
21543;SDS011;10933;50.754;11.508;2023-05-29T04:40:13;3.80;;;3.50;;
21543;SDS011;10933;50.754;11.508;2023-05-29T04:42:42;4.05;;;3.75;;
21543;SDS011;10933;50.754;11.508;2023-05-29T04:45:10;3.42;;;3.22;;
21543;SDS011;10933;50.754;11.508;2023-05-29T04:47:36;4.13;;;3.83;;
21543;SDS011;10933;50.754;11.508;2023-05-29T04:50:15;4.70;;;4.40;;
21543;SDS011;10933;50.754;11.508;2023-05-29T04:52:42;4.07;;;3.78;;
21543;SDS011;10933;50.754;11.508;2023-05-29T04:55:09;4.78;;;3.65;;
21543;SDS011;10933;50.754;11.508;2023-05-29T04:57:35;4.90;;;4.50;;
21543;SDS011;10933;50.754;11.508;2023-05-29T05:00:02;4.57;;;4.28;;
21543;SDS011;10933;50.754;11.508;2023-05-29T05:02:33;4.57;;;4.22;;
21543;SDS011;10933;50.754;11.508;2023-05-29T05:04:59;4.88;;;3.95;;
21543;SDS011;10933;50.754;11.508;2023-05-29T05:07:25;5.70;;;4.25;;
21543;SDS011;10933;50.754;11.508;2023-05-29T05:09:51;5.07;;;4.70;;
21543;SDS011;10933;50.754;11.508;2023-05-29T05:12:18;4.80;;;4.50;;
21543;SDS011;10933;50.754;11.508;2023-05-29T05:14:44;6.68;;;4.25;;
21543;SDS011;10933;50.754;11.508;2023-05-29T05:17:11;4.82;;;4.43;;
21543;SDS011;10933;50.754;11.508;2023-05-29T05:19:37;4.55;;;4.25;;
21543;SDS011;10933;50.754;11.508;2023-05-29T05:22:03;5.13;;;4.78;;
21543;SDS011;10933;50.754;11.508;2023-05-29T05:24:29;4.75;;;4.45;;
21543;SDS011;10933;50.754;11.508;2023-05-29T05:26:57;4.22;;;3.92;;
21543;SDS011;10933;50.754;11.508;2023-05-29T05:29:23;4.50;;;4.20;;
21543;SDS011;10933;50.754;11.508;2023-05-29T05:31:49;4.07;;;3.88;;
21543;SDS011;10933;50.754;11.508;2023-05-29T05:34:15;4.57;;;4.20;;
21543;SDS011;10933;50.754;11.508;2023-05-29T05:36:42;4.38;;;4.07;;
21543;SDS011;10933;50.754;11.508;2023-05-29T05:39:08;4.55;;;4.25;;
21543;SDS011;10933;50.754;11.508;2023-05-29T05:41:34;3.92;;;3.72;;
21543;SDS011;10933;50.754;11.508;2023-05-29T05:44:00;4.85;;;4.18;;
21543;SDS011;10933;50.754;11.508;2023-05-29T05:46:26;4.38;;;4.15;;
21543;SDS011;10933;50.754;11.508;2023-05-29T05:48:53;4.88;;;4.55;;
21543;SDS011;10933;50.754;11.508;2023-05-29T05:51:23;4.13;;;3.83;;
21543;SDS011;10933;50.754;11.508;2023-05-29T05:53:49;4.03;;;3.75;;
21543;SDS011;10933;50.754;11.508;2023-05-29T05:56:15;4.03;;;3.72;;
21543;SDS011;10933;50.754;11.508;2023-05-29T05:58:42;4.32;;;4.05;;
21543;SDS011;10933;50.754;11.508;2023-05-29T06:01:08;3.80;;;3.50;;
21543;SDS011;10933;50.754;11.508;2023-05-29T06:03:34;3.92;;;3.63;;
21543;SDS011;10933;50.754;11.508;2023-05-29T06:06:02;4.70;;;4.13;;
21543;SDS011;10933;50.754;11.508;2023-05-29T06:08:29;3.75;;;3.45;;
21543;SDS011;10933;50.754;11.508;2023-05-29T06:10:55;3.72;;;3.47;;
21543;SDS011;10933;50.754;11.508;2023-05-29T06:13:21;4.55;;;4.25;;
21543;SDS011;10933;50.754;11.508;2023-05-29T06:15:48;4.30;;;4.05;;
21543;SDS011;10933;50.754;11.508;2023-05-29T06:18:14;3.70;;;3.40;;
21543;SDS011;10933;50.754;11.508;2023-05-29T06:20:40;3.58;;;3.30;;
21543;SDS011;10933;50.754;11.508;2023-05-29T06:23:06;4.40;;;3.83;;
21543;SDS011;10933;50.754;11.508;2023-05-29T06:25:32;3.67;;;3.47;;
21543;SDS011;10933;50.754;11.508;2023-05-29T06:27:59;5.85;;;3.05;;
21543;SDS011;10933;50.754;11.508;2023-05-29T06:30:26;3.55;;;3.35;;
21543;SDS011;10933;50.754;11.508;2023-05-29T06:32:52;3.33;;;3.13;;
21543;SDS011;10933;50.754;11.508;2023-05-29T06:35:18;3.90;;;3.60;;
21543;SDS011;10933;50.754;11.508;2023-05-29T06:37:45;3.92;;;3.63;;
21543;SDS011;10933;50.754;11.508;2023-05-29T06:40:14;3.30;;;3.10;;
21543;SDS011;10933;50.754;11.508;2023-05-29T06:42:41;4.05;;;3.75;;
21543;SDS011;10933;50.754;11.508;2023-05-29T06:45:10;4.03;;;3.72;;
21543;SDS011;10933;50.754;11.508;2023-05-29T06:47:40;3.28;;;3.08;;
21543;SDS011;10933;50.754;11.508;2023-05-29T06:50:09;4.00;;;3.38;;
21543;SDS011;10933;50.754;11.508;2023-05-29T06:52:36;3.85;;;3.47;;
21543;SDS011;10933;50.754;11.508;2023-05-29T06:55:02;4.00;;;3.70;;
21543;SDS011;10933;50.754;11.508;2023-05-29T06:57:28;4.30;;;3.85;;
21543;SDS011;10933;50.754;11.508;2023-05-29T06:59:54;4.25;;;3.95;;
21543;SDS011;10933;50.754;11.508;2023-05-29T07:02:21;3.47;;;3.28;;
21543;SDS011;10933;50.754;11.508;2023-05-29T07:04:47;3.45;;;3.17;;
21543;SDS011;10933;50.754;11.508;2023-05-29T07:07:13;3.30;;;3.10;;
21543;SDS011;10933;50.754;11.508;2023-05-29T07:09:39;3.58;;;3.05;;
21543;SDS011;10933;50.754;11.508;2023-05-29T07:12:05;3.47;;;3.28;;
21543;SDS011;10933;50.754;11.508;2023-05-29T07:14:32;3.63;;;3.15;;
21543;SDS011;10933;50.754;11.508;2023-05-29T07:16:59;3.03;;;2.83;;
21543;SDS011;10933;50.754;11.508;2023-05-29T07:19:25;3.83;;;3.53;;
21543;SDS011;10933;50.754;11.508;2023-05-29T07:21:51;3.83;;;3.28;;
21543;SDS011;10933;50.754;11.508;2023-05-29T07:24:17;3.45;;;3.25;;
21543;SDS011;10933;50.754;11.508;2023-05-29T07:26:44;3.38;;;3.08;;
21543;SDS011;10933;50.754;11.508;2023-05-29T07:29:10;3.50;;;3.20;;
21543;SDS011;10933;50.754;11.508;2023-05-29T07:31:38;3.05;;;2.85;;
21543;SDS011;10933;50.754;11.508;2023-05-29T07:34:07;3.22;;;3.03;;
21543;SDS011;10933;50.754;11.508;2023-05-29T07:36:33;3.50;;;3.20;;
21543;SDS011;10933;50.754;11.508;2023-05-29T07:39:00;3.20;;;2.90;;
21543;SDS011;10933;50.754;11.508;2023-05-29T07:41:27;3.20;;;3.00;;
21543;SDS011;10933;50.754;11.508;2023-05-29T07:43:53;3.83;;;3.53;;
21543;SDS011;10933;50.754;11.508;2023-05-29T07:46:20;3.60;;;3.35;;
21543;SDS011;10933;50.754;11.508;2023-05-29T07:48:46;3.70;;;3.25;;
21543;SDS011;10933;50.754;11.508;2023-05-29T07:51:12;3.55;;;3.25;;
21543;SDS011;10933;50.754;11.508;2023-05-29T07:53:39;3.33;;;3.13;;
21543;SDS011;10933;50.754;11.508;2023-05-29T07:56:05;3.17;;;2.97;;
21543;SDS011;10933;50.754;11.508;2023-05-29T07:58:31;3.95;;;3.55;;
21543;SDS011;10933;50.754;11.508;2023-05-29T08:00:58;3.08;;;2.88;;
21543;SDS011;10933;50.754;11.508;2023-05-29T08:03:24;3.35;;;3.05;;
21543;SDS011;10933;50.754;11.508;2023-05-29T08:05:50;3.60;;;3.30;;
21543;SDS011;10933;50.754;11.508;2023-05-29T08:08:17;3.10;;;2.90;;
21543;SDS011;10933;50.754;11.508;2023-05-29T08:10:44;3.13;;;2.83;;
21543;SDS011;10933;50.754;11.508;2023-05-29T08:13:10;3.40;;;3.20;;
21543;SDS011;10933;50.754;11.508;2023-05-29T08:15:36;3.78;;;3.47;;
21543;SDS011;10933;50.754;11.508;2023-05-29T08:18:03;3.00;;;2.78;;
21543;SDS011;10933;50.754;11.508;2023-05-29T08:20:30;3.00;;;2.78;;
21543;SDS011;10933;50.754;11.508;2023-05-29T08:22:56;2.65;;;2.47;;
21543;SDS011;10933;50.754;11.508;2023-05-29T08:25:22;2.45;;;2.25;;
21543;SDS011;10933;50.754;11.508;2023-05-29T08:27:48;3.22;;;2.92;;
21543;SDS011;10933;50.754;11.508;2023-05-29T08:30:14;2.95;;;2.72;;
21543;SDS011;10933;50.754;11.508;2023-05-29T08:32:41;3.03;;;2.83;;
21543;SDS011;10933;50.754;11.508;2023-05-29T08:35:07;2.40;;;2.30;;
21543;SDS011;10933;50.754;11.508;2023-05-29T08:37:34;4.28;;;2.90;;
21543;SDS011;10933;50.754;11.508;2023-05-29T08:40:00;2.78;;;2.58;;
21543;SDS011;10933;50.754;11.508;2023-05-29T08:42:33;2.95;;;2.65;;
21543;SDS011;10933;50.754;11.508;2023-05-29T08:45:05;3.92;;;2.75;;
21543;SDS011;10933;50.754;11.508;2023-05-29T08:47:36;3.10;;;2.90;;
21543;SDS011;10933;50.754;11.508;2023-05-29T08:50:06;3.60;;;3.30;;
21543;SDS011;10933;50.754;11.508;2023-05-29T08:52:34;2.95;;;2.75;;
21543;SDS011;10933;50.754;11.508;2023-05-29T08:55:01;2.60;;;2.40;;
21543;SDS011;10933;50.754;11.508;2023-05-29T08:57:28;3.30;;;2.65;;
21543;SDS011;10933;50.754;11.508;2023-05-29T08:59:56;2.80;;;2.60;;
21543;SDS011;10933;50.754;11.508;2023-05-29T09:02:23;2.50;;;2.30;;
21543;SDS011;10933;50.754;11.508;2023-05-29T09:04:49;6.22;;;3.92;;
21543;SDS011;10933;50.754;11.508;2023-05-29T09:07:19;2.80;;;2.60;;
21543;SDS011;10933;50.754;11.508;2023-05-29T09:09:46;4.15;;;2.33;;
21543;SDS011;10933;50.754;11.508;2023-05-29T09:12:13;3.22;;;2.90;;
21543;SDS011;10933;50.754;11.508;2023-05-29T09:14:43;2.95;;;2.45;;
21543;SDS011;10933;50.754;11.508;2023-05-29T09:17:10;3.58;;;2.03;;
21543;SDS011;10933;50.754;11.508;2023-05-29T09:19:37;2.58;;;2.35;;
21543;SDS011;10933;50.754;11.508;2023-05-29T09:22:09;2.67;;;2.47;;
21543;SDS011;10933;50.754;11.508;2023-05-29T09:24:40;3.80;;;2.40;;
21543;SDS011;10933;50.754;11.508;2023-05-29T09:27:10;2.67;;;2.47;;
21543;SDS011;10933;50.754;11.508;2023-05-29T09:29:43;2.58;;;2.47;;
21543;SDS011;10933;50.754;11.508;2023-05-29T09:32:20;2.17;;;2.05;;
21543;SDS011;10933;50.754;11.508;2023-05-29T09:34:47;2.63;;;2.42;;
21543;SDS011;10933;50.754;11.508;2023-05-29T09:37:13;2.80;;;2.60;;
21543;SDS011;10933;50.754;11.508;2023-05-29T09:42:12;2.78;;;2.58;;
21543;SDS011;10933;50.754;11.508;2023-05-29T09:44:40;2.20;;;2.00;;
21543;SDS011;10933;50.754;11.508;2023-05-29T09:47:07;2.95;;;2.58;;
21543;SDS011;10933;50.754;11.508;2023-05-29T09:49:34;2.35;;;2.15;;
21543;SDS011;10933;50.754;11.508;2023-05-29T09:52:05;2.38;;;2.20;;
21543;SDS011;10933;50.754;11.508;2023-05-29T09:54:34;2.10;;;2.00;;
21543;SDS011;10933;50.754;11.508;2023-05-29T09:57:01;2.90;;;1.90;;
21543;SDS011;10933;50.754;11.508;2023-05-29T09:59:30;2.22;;;2.13;;
21543;SDS011;10933;50.754;11.508;2023-05-29T10:02:02;2.60;;;2.35;;
21543;SDS011;10933;50.754;11.508;2023-05-29T10:04:32;2.20;;;2.00;;
21543;SDS011;10933;50.754;11.508;2023-05-29T10:07:04;2.92;;;2.40;;
21543;SDS011;10933;50.754;11.508;2023-05-29T10:09:35;2.63;;;2.42;;
21543;SDS011;10933;50.754;11.508;2023-05-29T10:12:06;2.75;;;2.55;;
21543;SDS011;10933;50.754;11.508;2023-05-29T10:14:33;2.45;;;2.25;;
21543;SDS011;10933;50.754;11.508;2023-05-29T10:17:01;2.40;;;2.20;;
21543;SDS011;10933;50.754;11.508;2023-05-29T10:19:31;4.78;;;1.92;;
21543;SDS011;10933;50.754;11.508;2023-05-29T10:22:01;2.45;;;2.30;;
21543;SDS011;10933;50.754;11.508;2023-05-29T10:24:29;2.53;;;2.33;;
21543;SDS011;10933;50.754;11.508;2023-05-29T10:26:57;2.13;;;1.85;;
21543;SDS011;10933;50.754;11.508;2023-05-29T10:29:28;2.63;;;2.33;;
21543;SDS011;10933;50.754;11.508;2023-05-29T10:32:07;2.33;;;2.05;;
21543;SDS011;10933;50.754;11.508;2023-05-29T10:34:47;2.30;;;2.15;;
21543;SDS011;10933;50.754;11.508;2023-05-29T10:40:16;3.03;;;2.22;;
21543;SDS011;10933;50.754;11.508;2023-05-29T10:42:52;1.77;;;1.67;;
21543;SDS011;10933;50.754;11.508;2023-05-29T10:50:43;4.85;;;1.60;;
21543;SDS011;10933;50.754;11.508;2023-05-29T10:53:18;1.92;;;1.73;;
21543;SDS011;10933;50.754;11.508;2023-05-29T10:55:49;2.38;;;2.17;;
21543;SDS011;10933;50.754;11.508;2023-05-29T10:58:20;1.95;;;1.73;;
21543;SDS011;10933;50.754;11.508;2023-05-29T11:00:49;2.03;;;1.83;;
21543;SDS011;10933;50.754;11.508;2023-05-29T11:03:24;2.63;;;2.42;;
21543;SDS011;10933;50.754;11.508;2023-05-29T11:08:54;2.15;;;2.00;;
21543;SDS011;10933;50.754;11.508;2023-05-29T11:14:01;2.42;;;2.15;;
21543;SDS011;10933;50.754;11.508;2023-05-29T11:18:56;2.30;;;2.10;;
21543;SDS011;10933;50.754;11.508;2023-05-29T11:24:14;2.20;;;2.10;;
21543;SDS011;10933;50.754;11.508;2023-05-29T11:26:50;2.03;;;1.83;;
21543;SDS011;10933;50.754;11.508;2023-05-29T11:29:20;2.33;;;2.13;;
21543;SDS011;10933;50.754;11.508;2023-05-29T11:31:48;2.05;;;1.95;;
21543;SDS011;10933;50.754;11.508;2023-05-29T11:34:29;2.38;;;2.17;;
21543;SDS011;10933;50.754;11.508;2023-05-29T11:36:56;2.30;;;2.05;;
21543;SDS011;10933;50.754;11.508;2023-05-29T11:39:27;2.03;;;1.92;;
21543;SDS011;10933;50.754;11.508;2023-05-29T11:41:54;3.13;;;2.00;;
21543;SDS011;10933;50.754;11.508;2023-05-29T11:44:22;2.05;;;1.95;;
21543;SDS011;10933;50.754;11.508;2023-05-29T11:47:03;3.05;;;2.08;;
21543;SDS011;10933;50.754;11.508;2023-05-29T11:49:31;3.08;;;2.05;;
21543;SDS011;10933;50.754;11.508;2023-05-29T11:52:11;1.83;;;1.73;;
21543;SDS011;10933;50.754;11.508;2023-05-29T11:54:39;1.88;;;1.77;;
21543;SDS011;10933;50.754;11.508;2023-05-29T11:57:21;4.07;;;1.95;;
21543;SDS011;10933;50.754;11.508;2023-05-29T11:59:51;2.25;;;2.05;;
21543;SDS011;10933;50.754;11.508;2023-05-29T12:02:23;1.88;;;1.77;;
21543;SDS011;10933;50.754;11.508;2023-05-29T12:05:11;1.90;;;1.80;;
21543;SDS011;10933;50.754;11.508;2023-05-29T12:07:46;2.03;;;1.85;;
21543;SDS011;10933;50.754;11.508;2023-05-29T12:10:15;2.00;;;1.80;;
21543;SDS011;10933;50.754;11.508;2023-05-29T12:12:42;1.55;;;1.45;;
21543;SDS011;10933;50.754;11.508;2023-05-29T12:15:13;2.97;;;1.75;;
21543;SDS011;10933;50.754;11.508;2023-05-29T12:17:40;1.77;;;1.67;;
21543;SDS011;10933;50.754;11.508;2023-05-29T12:20:07;1.92;;;1.83;;
21543;SDS011;10933;50.754;11.508;2023-05-29T12:22:36;1.70;;;1.60;;
21543;SDS011;10933;50.754;11.508;2023-05-29T12:25:14;3.15;;;2.05;;
21543;SDS011;10933;50.754;11.508;2023-05-29T12:27:43;2.08;;;1.90;;
21543;SDS011;10933;50.754;11.508;2023-05-29T12:30:12;2.85;;;2.33;;
21543;SDS011;10933;50.754;11.508;2023-05-29T12:32:40;1.95;;;1.85;;
21543;SDS011;10933;50.754;11.508;2023-05-29T12:35:11;2.65;;;1.80;;
21543;SDS011;10933;50.754;11.508;2023-05-29T12:37:45;2.35;;;1.98;;
21543;SDS011;10933;50.754;11.508;2023-05-29T12:40:33;2.78;;;1.90;;
21543;SDS011;10933;50.754;11.508;2023-05-29T12:43:07;2.45;;;2.30;;
21543;SDS011;10933;50.754;11.508;2023-05-29T12:45:37;2.30;;;2.10;;
21543;SDS011;10933;50.754;11.508;2023-05-29T12:48:04;2.40;;;2.10;;
21543;SDS011;10933;50.754;11.508;2023-05-29T12:50:32;2.10;;;1.98;;
21543;SDS011;10933;50.754;11.508;2023-05-29T12:53:08;2.42;;;2.22;;
21543;SDS011;10933;50.754;11.508;2023-05-29T12:55:39;11.23;;;2.53;;
21543;SDS011;10933;50.754;11.508;2023-05-29T12:58:10;3.83;;;2.10;;
21543;SDS011;10933;50.754;11.508;2023-05-29T13:00:38;3.13;;;1.77;;
21543;SDS011;10933;50.754;11.508;2023-05-29T13:03:06;2.15;;;1.98;;
21543;SDS011;10933;50.754;11.508;2023-05-29T13:05:32;1.90;;;1.80;;
21543;SDS011;10933;50.754;11.508;2023-05-29T13:08:00;2.97;;;2.20;;
21543;SDS011;10933;50.754;11.508;2023-05-29T13:10:26;2.10;;;1.85;;
21543;SDS011;10933;50.754;11.508;2023-05-29T13:12:54;2.67;;;2.45;;
21543;SDS011;10933;50.754;11.508;2023-05-29T13:15:21;2.30;;;2.10;;
21543;SDS011;10933;50.754;11.508;2023-05-29T13:17:48;2.40;;;2.17;;
21543;SDS011;10933;50.754;11.508;2023-05-29T13:20:15;2.30;;;2.20;;
21543;SDS011;10933;50.754;11.508;2023-05-29T13:22:42;2.10;;;2.00;;
21543;SDS011;10933;50.754;11.508;2023-05-29T13:25:11;2.28;;;1.92;;
21543;SDS011;10933;50.754;11.508;2023-05-29T13:27:41;2.83;;;2.05;;
21543;SDS011;10933;50.754;11.508;2023-05-29T13:30:09;2.50;;;2.20;;
21543;SDS011;10933;50.754;11.508;2023-05-29T13:32:37;2.20;;;2.00;;
21543;SDS011;10933;50.754;11.508;2023-05-29T13:35:04;1.83;;;1.73;;
21543;SDS011;10933;50.754;11.508;2023-05-29T13:37:31;2.00;;;1.90;;
21543;SDS011;10933;50.754;11.508;2023-05-29T13:39:57;2.15;;;2.00;;
21543;SDS011;10933;50.754;11.508;2023-05-29T13:42:23;1.90;;;1.80;;
21543;SDS011;10933;50.754;11.508;2023-05-29T13:44:50;1.95;;;1.80;;
21543;SDS011;10933;50.754;11.508;2023-05-29T13:47:18;1.98;;;1.88;;
21543;SDS011;10933;50.754;11.508;2023-05-29T13:49:44;2.38;;;2.17;;
21543;SDS011;10933;50.754;11.508;2023-05-29T13:52:10;2.40;;;2.20;;
21543;SDS011;10933;50.754;11.508;2023-05-29T13:54:36;3.15;;;2.10;;
21543;SDS011;10933;50.754;11.508;2023-05-29T13:57:03;2.00;;;1.90;;
21543;SDS011;10933;50.754;11.508;2023-05-29T13:59:31;3.17;;;2.08;;
21543;SDS011;10933;50.754;11.508;2023-05-29T14:01:58;1.90;;;1.80;;
21543;SDS011;10933;50.754;11.508;2023-05-29T14:04:24;2.10;;;2.00;;
21543;SDS011;10933;50.754;11.508;2023-05-29T14:06:50;2.03;;;1.92;;
21543;SDS011;10933;50.754;11.508;2023-05-29T14:09:17;1.92;;;1.70;;
21543;SDS011;10933;50.754;11.508;2023-05-29T14:11:51;2.03;;;1.92;;
21543;SDS011;10933;50.754;11.508;2023-05-29T14:14:18;2.17;;;2.00;;
21543;SDS011;10933;50.754;11.508;2023-05-29T14:16:45;2.08;;;1.98;;
21543;SDS011;10933;50.754;11.508;2023-05-29T14:19:11;2.03;;;1.92;;
21543;SDS011;10933;50.754;11.508;2023-05-29T14:21:37;6.53;;;2.08;;
21543;SDS011;10933;50.754;11.508;2023-05-29T14:24:03;3.25;;;1.88;;
21543;SDS011;10933;50.754;11.508;2023-05-29T14:26:29;3.50;;;1.80;;
21543;SDS011;10933;50.754;11.508;2023-05-29T14:28:55;2.30;;;2.10;;
21543;SDS011;10933;50.754;11.508;2023-05-29T14:31:22;4.97;;;2.45;;
21543;SDS011;10933;50.754;11.508;2023-05-29T14:33:48;2.30;;;2.10;;
21543;SDS011;10933;50.754;11.508;2023-05-29T14:36:14;2.35;;;2.17;;
21543;SDS011;10933;50.754;11.508;2023-05-29T14:38:40;2.47;;;2.13;;
21543;SDS011;10933;50.754;11.508;2023-05-29T14:41:08;2.00;;;1.90;;
21543;SDS011;10933;50.754;11.508;2023-05-29T14:43:35;6.40;;;2.33;;
21543;SDS011;10933;50.754;11.508;2023-05-29T14:46:03;3.35;;;3.05;;
21543;SDS011;10933;50.754;11.508;2023-05-29T14:48:29;7.15;;;3.00;;
21543;SDS011;10933;50.754;11.508;2023-05-29T14:50:56;2.38;;;2.15;;
21543;SDS011;10933;50.754;11.508;2023-05-29T14:53:22;5.68;;;2.30;;
21543;SDS011;10933;50.754;11.508;2023-05-29T14:55:49;2.78;;;2.58;;
21543;SDS011;10933;50.754;11.508;2023-05-29T14:58:15;2.40;;;2.20;;
21543;SDS011;10933;50.754;11.508;2023-05-29T15:00:41;1.67;;;1.55;;
21543;SDS011;10933;50.754;11.508;2023-05-29T15:03:07;2.15;;;1.95;;
21543;SDS011;10933;50.754;11.508;2023-05-29T15:05:33;2.03;;;1.90;;
21543;SDS011;10933;50.754;11.508;2023-05-29T15:07:59;2.00;;;1.90;;
21543;SDS011;10933;50.754;11.508;2023-05-29T15:10:26;2.80;;;2.60;;